sensor_id;sensor_type;location;lat;lon;timestamp;temperature;humidity
10263;DHT22;5177;50.068;8.156;2023-08-06T00:02:03;17.10;99.90
10263;DHT22;5177;50.068;8.156;2023-08-06T00:04:28;17.10;1.00
10263;DHT22;5177;50.068;8.156;2023-08-06T00:06:54;17.10;31.10
10263;DHT22;5177;50.068;8.156;2023-08-06T00:09:19;17.10;61.20
10263;DHT22;5177;50.068;8.156;2023-08-06T00:11:45;17.20;1.00
10263;DHT22;5177;50.068;8.156;2023-08-06T00:14:12;17.20;1.00
10263;DHT22;5177;50.068;8.156;2023-08-06T00:16:37;17.20;99.90
10263;DHT22;5177;50.068;8.156;2023-08-06T00:19:03;17.20;99.90
10263;DHT22;5177;50.068;8.156;2023-08-06T00:21:28;17.20;99.90
10263;DHT22;5177;50.068;8.156;2023-08-06T00:23:54;17.20;99.90
10263;DHT22;5177;50.068;8.156;2023-08-06T00:26:19;17.20;1.00
10263;DHT22;5177;50.068;8.156;2023-08-06T00:28:45;17.20;1.00
10263;DHT22;5177;50.068;8.156;2023-08-06T00:31:10;17.20;19.60
10263;DHT22;5177;50.068;8.156;2023-08-06T00:33:36;17.10;99.90
10263;DHT22;5177;50.068;8.156;2023-08-06T00:36:01;17.10;99.90
10263;DHT22;5177;50.068;8.156;2023-08-06T00:38:27;17.00;1.00
10263;DHT22;5177;50.068;8.156;2023-08-06T00:40:52;17.00;1.00
10263;DHT22;5177;50.068;8.156;2023-08-06T00:43:18;17.00;1.00
10263;DHT22;5177;50.068;8.156;2023-08-06T00:45:44;17.00;99.90
10263;DHT22;5177;50.068;8.156;2023-08-06T00:48:09;17.00;99.90
10263;DHT22;5177;50.068;8.156;2023-08-06T00:50:35;16.90;99.90
10263;DHT22;5177;50.068;8.156;2023-08-06T00:53:01;16.90;99.90
10263;DHT22;5177;50.068;8.156;2023-08-06T00:55:27;16.80;1.00
10263;DHT22;5177;50.068;8.156;2023-08-06T00:57:52;16.90;1.00
10263;DHT22;5177;50.068;8.156;2023-08-06T01:00:21;16.90;99.90
10263;DHT22;5177;50.068;8.156;2023-08-06T01:02:48;16.90;99.90
10263;DHT22;5177;50.068;8.156;2023-08-06T01:05:13;17.00;99.90
10263;DHT22;5177;50.068;8.156;2023-08-06T01:13:11;17.00;44.10
10263;DHT22;5177;50.068;8.156;2023-08-06T01:15:42;17.10;1.00
10263;DHT22;5177;50.068;8.156;2023-08-06T01:18:09;17.10;1.00
10263;DHT22;5177;50.068;8.156;2023-08-06T01:20:35;17.10;1.00
10263;DHT22;5177;50.068;8.156;2023-08-06T01:23:01;17.10;99.90
10263;DHT22;5177;50.068;8.156;2023-08-06T01:25:28;17.10;99.90
10263;DHT22;5177;50.068;8.156;2023-08-06T01:27:55;17.10;1.00
10263;DHT22;5177;50.068;8.156;2023-08-06T01:30:27;17.10;1.00
10263;DHT22;5177;50.068;8.156;2023-08-06T01:32:55;17.10;1.00
10263;DHT22;5177;50.068;8.156;2023-08-06T01:35:23;17.10;1.00
10263;DHT22;5177;50.068;8.156;2023-08-06T01:37:50;17.00;99.90
10263;DHT22;5177;50.068;8.156;2023-08-06T01:40:16;17.10;1.00
10263;DHT22;5177;50.068;8.156;2023-08-06T01:42:41;17.00;99.90
10263;DHT22;5177;50.068;8.156;2023-08-06T01:45:07;17.00;99.90
10263;DHT22;5177;50.068;8.156;2023-08-06T01:47:33;17.00;99.90
10263;DHT22;5177;50.068;8.156;2023-08-06T01:49:58;17.00;99.90
10263;DHT22;5177;50.068;8.156;2023-08-06T01:52:24;17.00;99.90
10263;DHT22;5177;50.068;8.156;2023-08-06T01:54:49;17.00;99.90
10263;DHT22;5177;50.068;8.156;2023-08-06T01:57:15;17.10;99.90
10263;DHT22;5177;50.068;8.156;2023-08-06T01:59:40;17.00;99.90
10263;DHT22;5177;50.068;8.156;2023-08-06T02:02:06;17.00;99.90
10263;DHT22;5177;50.068;8.156;2023-08-06T02:04:31;17.00;99.90
10263;DHT22;5177;50.068;8.156;2023-08-06T02:06:57;17.00;99.90
10263;DHT22;5177;50.068;8.156;2023-08-06T02:09:22;17.00;99.90
10263;DHT22;5177;50.068;8.156;2023-08-06T02:11:48;16.90;99.90
10263;DHT22;5177;50.068;8.156;2023-08-06T02:14:13;17.00;99.90
10263;DHT22;5177;50.068;8.156;2023-08-06T02:16:39;16.90;99.90
10263;DHT22;5177;50.068;8.156;2023-08-06T02:19:04;16.90;99.90
10263;DHT22;5177;50.068;8.156;2023-08-06T02:21:30;16.90;99.90
10263;DHT22;5177;50.068;8.156;2023-08-06T02:23:55;16.90;1.00
10263;DHT22;5177;50.068;8.156;2023-08-06T02:26:20;16.80;1.00
10263;DHT22;5177;50.068;8.156;2023-08-06T02:28:46;16.80;1.00
10263;DHT22;5177;50.068;8.156;2023-08-06T02:31:14;16.80;1.00
10263;DHT22;5177;50.068;8.156;2023-08-06T02:33:40;16.80;1.00
10263;DHT22;5177;50.068;8.156;2023-08-06T02:36:05;16.80;1.00
10263;DHT22;5177;50.068;8.156;2023-08-06T02:38:31;16.80;1.00
10263;DHT22;5177;50.068;8.156;2023-08-06T02:40:56;16.80;1.00
10263;DHT22;5177;50.068;8.156;2023-08-06T02:43:22;16.80;1.00
10263;DHT22;5177;50.068;8.156;2023-08-06T02:45:47;16.80;1.00
10263;DHT22;5177;50.068;8.156;2023-08-06T02:48:13;16.80;1.00
10263;DHT22;5177;50.068;8.156;2023-08-06T02:50:38;16.80;99.90
10263;DHT22;5177;50.068;8.156;2023-08-06T02:53:05;16.80;99.90
10263;DHT22;5177;50.068;8.156;2023-08-06T02:55:31;16.80;99.90
10263;DHT22;5177;50.068;8.156;2023-08-06T02:57:56;16.80;1.00
10263;DHT22;5177;50.068;8.156;2023-08-06T03:00:22;16.80;99.90
10263;DHT22;5177;50.068;8.156;2023-08-06T03:02:47;16.80;99.90
10263;DHT22;5177;50.068;8.156;2023-08-06T03:05:13;16.80;99.90
10263;DHT22;5177;50.068;8.156;2023-08-06T03:07:38;16.80;99.90
10263;DHT22;5177;50.068;8.156;2023-08-06T03:10:04;16.80;1.00
10263;DHT22;5177;50.068;8.156;2023-08-06T03:12:29;16.80;99.90
10263;DHT22;5177;50.068;8.156;2023-08-06T03:14:55;16.80;99.90
10263;DHT22;5177;50.068;8.156;2023-08-06T03:17:20;16.70;1.00
10263;DHT22;5177;50.068;8.156;2023-08-06T03:19:46;16.70;1.00
10263;DHT22;5177;50.068;8.156;2023-08-06T03:22:11;16.70;1.00
10263;DHT22;5177;50.068;8.156;2023-08-06T03:24:37;16.70;99.90
10263;DHT22;5177;50.068;8.156;2023-08-06T03:27:02;16.70;1.00
10263;DHT22;5177;50.068;8.156;2023-08-06T03:29:28;16.70;1.00
10263;DHT22;5177;50.068;8.156;2023-08-06T03:31:53;16.60;1.00
10263;DHT22;5177;50.068;8.156;2023-08-06T03:34:19;16.60;1.00
10263;DHT22;5177;50.068;8.156;2023-08-06T03:36:44;16.50;1.00
10263;DHT22;5177;50.068;8.156;2023-08-06T03:39:10;16.50;1.00
10263;DHT22;5177;50.068;8.156;2023-08-06T03:41:35;16.40;1.00
10263;DHT22;5177;50.068;8.156;2023-08-06T03:44:01;16.40;1.00
10263;DHT22;5177;50.068;8.156;2023-08-06T03:46:29;16.30;1.00
10263;DHT22;5177;50.068;8.156;2023-08-06T03:48:54;16.30;1.00
10263;DHT22;5177;50.068;8.156;2023-08-06T03:51:20;16.30;1.00
10263;DHT22;5177;50.068;8.156;2023-08-06T03:53:45;16.30;1.00
10263;DHT22;5177;50.068;8.156;2023-08-06T03:56:11;16.30;1.00
10263;DHT22;5177;50.068;8.156;2023-08-06T03:58:36;16.30;1.00
10263;DHT22;5177;50.068;8.156;2023-08-06T04:01:02;16.30;1.00
10263;DHT22;5177;50.068;8.156;2023-08-06T04:03:28;16.40;1.00
10263;DHT22;5177;50.068;8.156;2023-08-06T04:05:54;16.30;1.00
10263;DHT22;5177;50.068;8.156;2023-08-06T04:08:19;16.30;1.00
10263;DHT22;5177;50.068;8.156;2023-08-06T04:10:45;16.30;1.00
10263;DHT22;5177;50.068;8.156;2023-08-06T04:13:10;16.30;1.00
10263;DHT22;5177;50.068;8.156;2023-08-06T04:15:36;16.30;1.00
10263;DHT22;5177;50.068;8.156;2023-08-06T04:18:01;16.30;99.90
10263;DHT22;5177;50.068;8.156;2023-08-06T04:20:27;16.20;1.00
10263;DHT22;5177;50.068;8.156;2023-08-06T04:22:54;16.20;1.00
10263;DHT22;5177;50.068;8.156;2023-08-06T04:25:20;16.20;1.00
10263;DHT22;5177;50.068;8.156;2023-08-06T04:27:46;16.20;1.00
10263;DHT22;5177;50.068;8.156;2023-08-06T04:30:12;16.10;1.00
10263;DHT22;5177;50.068;8.156;2023-08-06T04:32:38;16.00;1.00
10263;DHT22;5177;50.068;8.156;2023-08-06T04:35:04;16.10;99.90
10263;DHT22;5177;50.068;8.156;2023-08-06T04:37:30;16.00;99.90
10263;DHT22;5177;50.068;8.156;2023-08-06T04:39:55;16.00;99.90
10263;DHT22;5177;50.068;8.156;2023-08-06T04:42:20;15.90;99.90
10263;DHT22;5177;50.068;8.156;2023-08-06T04:44:46;16.00;99.90
10263;DHT22;5177;50.068;8.156;2023-08-06T04:47:11;15.90;99.90
10263;DHT22;5177;50.068;8.156;2023-08-06T04:49:37;15.90;99.90
10263;DHT22;5177;50.068;8.156;2023-08-06T04:52:02;15.90;99.90
10263;DHT22;5177;50.068;8.156;2023-08-06T04:54:28;15.90;99.90
10263;DHT22;5177;50.068;8.156;2023-08-06T04:56:53;15.90;99.90
10263;DHT22;5177;50.068;8.156;2023-08-06T04:59:19;15.90;99.90
10263;DHT22;5177;50.068;8.156;2023-08-06T05:01:44;15.80;99.90
10263;DHT22;5177;50.068;8.156;2023-08-06T05:04:10;15.80;99.90
10263;DHT22;5177;50.068;8.156;2023-08-06T05:06:35;15.70;99.90
10263;DHT22;5177;50.068;8.156;2023-08-06T05:09:03;15.70;99.90
10263;DHT22;5177;50.068;8.156;2023-08-06T05:11:29;15.70;99.90
10263;DHT22;5177;50.068;8.156;2023-08-06T05:13:55;15.70;99.90
10263;DHT22;5177;50.068;8.156;2023-08-06T05:16:20;15.70;99.90
10263;DHT22;5177;50.068;8.156;2023-08-06T05:18:46;15.70;99.90
10263;DHT22;5177;50.068;8.156;2023-08-06T05:21:11;15.70;99.90
10263;DHT22;5177;50.068;8.156;2023-08-06T05:23:37;15.70;99.90
10263;DHT22;5177;50.068;8.156;2023-08-06T05:26:02;15.50;99.90
10263;DHT22;5177;50.068;8.156;2023-08-06T05:28:28;15.60;99.90
10263;DHT22;5177;50.068;8.156;2023-08-06T05:30:53;15.50;99.90
10263;DHT22;5177;50.068;8.156;2023-08-06T05:33:19;15.60;99.90
10263;DHT22;5177;50.068;8.156;2023-08-06T05:35:44;15.60;99.90
10263;DHT22;5177;50.068;8.156;2023-08-06T05:38:10;15.60;99.90
10263;DHT22;5177;50.068;8.156;2023-08-06T05:40:35;15.60;99.90
10263;DHT22;5177;50.068;8.156;2023-08-06T05:43:01;15.60;99.90
10263;DHT22;5177;50.068;8.156;2023-08-06T05:45:27;15.60;99.90
10263;DHT22;5177;50.068;8.156;2023-08-06T05:47:52;15.80;99.90
10263;DHT22;5177;50.068;8.156;2023-08-06T05:50:19;15.60;99.90
10263;DHT22;5177;50.068;8.156;2023-08-06T05:52:45;15.70;99.90
10263;DHT22;5177;50.068;8.156;2023-08-06T05:55:10;15.70;99.90
10263;DHT22;5177;50.068;8.156;2023-08-06T05:57:36;15.70;99.90
10263;DHT22;5177;50.068;8.156;2023-08-06T06:00:01;15.70;99.90
10263;DHT22;5177;50.068;8.156;2023-08-06T06:02:27;15.60;99.90
10263;DHT22;5177;50.068;8.156;2023-08-06T06:04:53;15.60;99.90
10263;DHT22;5177;50.068;8.156;2023-08-06T06:07:18;15.60;99.90
10263;DHT22;5177;50.068;8.156;2023-08-06T06:09:44;15.50;99.90
10263;DHT22;5177;50.068;8.156;2023-08-06T06:12:09;15.50;99.90
10263;DHT22;5177;50.068;8.156;2023-08-06T06:14:35;15.50;99.90
10263;DHT22;5177;50.068;8.156;2023-08-06T06:17:00;15.40;99.90
10263;DHT22;5177;50.068;8.156;2023-08-06T06:19:26;15.40;99.90
10263;DHT22;5177;50.068;8.156;2023-08-06T06:21:52;15.40;99.90
10263;DHT22;5177;50.068;8.156;2023-08-06T06:24:18;15.40;99.90
10263;DHT22;5177;50.068;8.156;2023-08-06T06:26:43;15.40;99.90
10263;DHT22;5177;50.068;8.156;2023-08-06T06:29:09;15.30;99.90
10263;DHT22;5177;50.068;8.156;2023-08-06T06:31:34;15.30;99.90
10263;DHT22;5177;50.068;8.156;2023-08-06T06:34:00;15.30;99.90
10263;DHT22;5177;50.068;8.156;2023-08-06T06:36:26;15.30;99.90
10263;DHT22;5177;50.068;8.156;2023-08-06T06:38:51;15.30;99.90
10263;DHT22;5177;50.068;8.156;2023-08-06T06:41:17;15.30;99.90
10263;DHT22;5177;50.068;8.156;2023-08-06T06:43:42;15.30;99.90
10263;DHT22;5177;50.068;8.156;2023-08-06T06:46:08;15.40;99.90
10263;DHT22;5177;50.068;8.156;2023-08-06T06:48:33;15.40;99.90
10263;DHT22;5177;50.068;8.156;2023-08-06T06:50:59;15.40;99.90
10263;DHT22;5177;50.068;8.156;2023-08-06T06:53:24;15.40;99.90
10263;DHT22;5177;50.068;8.156;2023-08-06T06:55:56;15.40;99.90
10263;DHT22;5177;50.068;8.156;2023-08-06T06:58:22;15.40;99.90
10263;DHT22;5177;50.068;8.156;2023-08-06T07:00:48;15.40;99.90
10263;DHT22;5177;50.068;8.156;2023-08-06T07:03:16;15.50;99.90
10263;DHT22;5177;50.068;8.156;2023-08-06T07:05:42;15.50;99.90
10263;DHT22;5177;50.068;8.156;2023-08-06T07:08:08;15.50;99.90
10263;DHT22;5177;50.068;8.156;2023-08-06T07:10:33;15.60;99.90
10263;DHT22;5177;50.068;8.156;2023-08-06T07:12:59;15.60;99.90
10263;DHT22;5177;50.068;8.156;2023-08-06T07:15:25;15.60;99.90
10263;DHT22;5177;50.068;8.156;2023-08-06T07:17:51;15.60;99.90
10263;DHT22;5177;50.068;8.156;2023-08-06T07:20:16;15.70;99.90
10263;DHT22;5177;50.068;8.156;2023-08-06T07:22:42;15.70;99.90
10263;DHT22;5177;50.068;8.156;2023-08-06T07:25:07;15.70;99.90
10263;DHT22;5177;50.068;8.156;2023-08-06T07:27:33;15.70;99.90
10263;DHT22;5177;50.068;8.156;2023-08-06T07:29:58;15.80;99.90
10263;DHT22;5177;50.068;8.156;2023-08-06T07:32:24;16.00;99.90
10263;DHT22;5177;50.068;8.156;2023-08-06T07:34:50;16.10;99.90
10263;DHT22;5177;50.068;8.156;2023-08-06T07:37:16;16.20;99.90
10263;DHT22;5177;50.068;8.156;2023-08-06T07:39:41;16.30;99.90
10263;DHT22;5177;50.068;8.156;2023-08-06T07:42:08;16.40;99.90
10263;DHT22;5177;50.068;8.156;2023-08-06T07:44:33;16.50;99.90
10263;DHT22;5177;50.068;8.156;2023-08-06T07:46:59;16.70;99.90
10263;DHT22;5177;50.068;8.156;2023-08-06T07:49:24;16.80;99.90
10263;DHT22;5177;50.068;8.156;2023-08-06T07:51:50;17.00;99.90
10263;DHT22;5177;50.068;8.156;2023-08-06T07:54:17;17.10;99.90
10263;DHT22;5177;50.068;8.156;2023-08-06T07:56:42;17.30;99.90
10263;DHT22;5177;50.068;8.156;2023-08-06T07:59:08;17.40;99.90
10263;DHT22;5177;50.068;8.156;2023-08-06T08:01:34;17.30;99.90
10263;DHT22;5177;50.068;8.156;2023-08-06T08:04:00;17.30;99.90
10263;DHT22;5177;50.068;8.156;2023-08-06T08:06:25;17.20;99.90
10263;DHT22;5177;50.068;8.156;2023-08-06T08:08:51;17.30;99.90
10263;DHT22;5177;50.068;8.156;2023-08-06T08:11:17;17.30;99.90
10263;DHT22;5177;50.068;8.156;2023-08-06T08:13:43;17.30;99.90
10263;DHT22;5177;50.068;8.156;2023-08-06T08:16:09;17.50;92.20
10263;DHT22;5177;50.068;8.156;2023-08-06T08:18:34;17.60;99.90
10263;DHT22;5177;50.068;8.156;2023-08-06T08:21:00;17.90;91.20
10263;DHT22;5177;50.068;8.156;2023-08-06T08:23:25;18.10;33.90
10263;DHT22;5177;50.068;8.156;2023-08-06T08:25:51;18.20;1.00
10263;DHT22;5177;50.068;8.156;2023-08-06T08:28:16;18.30;21.50
10263;DHT22;5177;50.068;8.156;2023-08-06T08:30:42;18.30;1.00
10263;DHT22;5177;50.068;8.156;2023-08-06T08:33:07;18.40;1.00
10263;DHT22;5177;50.068;8.156;2023-08-06T08:35:33;18.50;1.00
10263;DHT22;5177;50.068;8.156;2023-08-06T08:37:59;18.50;99.90
10263;DHT22;5177;50.068;8.156;2023-08-06T08:40:26;18.50;1.00
10263;DHT22;5177;50.068;8.156;2023-08-06T08:42:54;18.50;86.60
10263;DHT22;5177;50.068;8.156;2023-08-06T08:45:20;18.40;99.90
10263;DHT22;5177;50.068;8.156;2023-08-06T08:47:47;18.30;99.90
10263;DHT22;5177;50.068;8.156;2023-08-06T08:50:13;18.30;70.10
10263;DHT22;5177;50.068;8.156;2023-08-06T08:52:40;18.40;98.70
10263;DHT22;5177;50.068;8.156;2023-08-06T08:55:06;18.50;99.90
10263;DHT22;5177;50.068;8.156;2023-08-06T08:57:32;18.70;10.80
10263;DHT22;5177;50.068;8.156;2023-08-06T08:59:57;18.70;1.00
10263;DHT22;5177;50.068;8.156;2023-08-06T09:02:23;18.80;1.00
10263;DHT22;5177;50.068;8.156;2023-08-06T09:04:50;18.70;1.00
10263;DHT22;5177;50.068;8.156;2023-08-06T09:07:19;18.70;1.00
10263;DHT22;5177;50.068;8.156;2023-08-06T09:09:46;18.60;20.50
10263;DHT22;5177;50.068;8.156;2023-08-06T09:12:14;18.40;99.90
10263;DHT22;5177;50.068;8.156;2023-08-06T09:14:40;18.40;99.90
10263;DHT22;5177;50.068;8.156;2023-08-06T09:17:05;18.30;99.90
10263;DHT22;5177;50.068;8.156;2023-08-06T09:19:31;18.30;99.90
10263;DHT22;5177;50.068;8.156;2023-08-06T09:21:57;18.30;53.60
10263;DHT22;5177;50.068;8.156;2023-08-06T09:24:22;17.90;99.90
10263;DHT22;5177;50.068;8.156;2023-08-06T09:26:48;17.70;99.90
10263;DHT22;5177;50.068;8.156;2023-08-06T09:29:14;17.40;99.90
10263;DHT22;5177;50.068;8.156;2023-08-06T09:31:42;17.20;99.90
10263;DHT22;5177;50.068;8.156;2023-08-06T09:36:56;17.20;99.90
10263;DHT22;5177;50.068;8.156;2023-08-06T09:39:26;17.30;99.90
10263;DHT22;5177;50.068;8.156;2023-08-06T09:41:55;17.60;99.90
10263;DHT22;5177;50.068;8.156;2023-08-06T09:44:21;17.80;99.90
10263;DHT22;5177;50.068;8.156;2023-08-06T09:46:52;17.90;99.90
10263;DHT22;5177;50.068;8.156;2023-08-06T09:49:19;18.20;99.90
10263;DHT22;5177;50.068;8.156;2023-08-06T09:51:45;18.40;99.90
10263;DHT22;5177;50.068;8.156;2023-08-06T09:54:14;18.60;99.90
10263;DHT22;5177;50.068;8.156;2023-08-06T09:56:40;18.90;1.00
10263;DHT22;5177;50.068;8.156;2023-08-06T09:59:07;19.00;1.00
10263;DHT22;5177;50.068;8.156;2023-08-06T10:01:33;19.10;1.00
10263;DHT22;5177;50.068;8.156;2023-08-06T10:04:00;19.00;1.00
10263;DHT22;5177;50.068;8.156;2023-08-06T10:06:28;19.10;68.80
10263;DHT22;5177;50.068;8.156;2023-08-06T10:08:54;19.10;1.00
10263;DHT22;5177;50.068;8.156;2023-08-06T10:11:20;19.00;1.00
10263;DHT22;5177;50.068;8.156;2023-08-06T10:13:47;19.00;99.90
10263;DHT22;5177;50.068;8.156;2023-08-06T10:16:13;19.20;1.00
10263;DHT22;5177;50.068;8.156;2023-08-06T10:18:40;19.60;99.90
10263;DHT22;5177;50.068;8.156;2023-08-06T10:21:09;20.10;88.00
10263;DHT22;5177;50.068;8.156;2023-08-06T10:23:36;20.40;99.90
10263;DHT22;5177;50.068;8.156;2023-08-06T10:26:03;21.00;99.90
10263;DHT22;5177;50.068;8.156;2023-08-06T10:28:38;21.00;1.00
10263;DHT22;5177;50.068;8.156;2023-08-06T10:31:04;20.80;1.00
10263;DHT22;5177;50.068;8.156;2023-08-06T10:33:43;20.70;99.90
10263;DHT22;5177;50.068;8.156;2023-08-06T10:36:09;20.70;1.00
10263;DHT22;5177;50.068;8.156;2023-08-06T10:38:35;20.70;99.90
10263;DHT22;5177;50.068;8.156;2023-08-06T10:41:08;20.80;1.00
10263;DHT22;5177;50.068;8.156;2023-08-06T10:43:39;20.80;15.20
10263;DHT22;5177;50.068;8.156;2023-08-06T10:46:10;20.80;1.00
10263;DHT22;5177;50.068;8.156;2023-08-06T10:48:40;21.10;99.90
10263;DHT22;5177;50.068;8.156;2023-08-06T10:51:08;20.90;99.90
10263;DHT22;5177;50.068;8.156;2023-08-06T10:53:33;20.60;99.90
10263;DHT22;5177;50.068;8.156;2023-08-06T10:55:59;20.30;1.00
10263;DHT22;5177;50.068;8.156;2023-08-06T10:58:25;19.80;99.90
10263;DHT22;5177;50.068;8.156;2023-08-06T11:00:51;19.50;1.00
10263;DHT22;5177;50.068;8.156;2023-08-06T11:03:17;19.30;1.00
10263;DHT22;5177;50.068;8.156;2023-08-06T11:05:48;19.40;99.90
10263;DHT22;5177;50.068;8.156;2023-08-06T11:08:22;19.50;86.00
10263;DHT22;5177;50.068;8.156;2023-08-06T11:10:48;19.40;99.90
10263;DHT22;5177;50.068;8.156;2023-08-06T11:13:16;19.00;1.00
10263;DHT22;5177;50.068;8.156;2023-08-06T11:15:42;18.80;1.00
10263;DHT22;5177;50.068;8.156;2023-08-06T11:18:08;18.70;99.90
10263;DHT22;5177;50.068;8.156;2023-08-06T11:20:34;18.60;1.00
10263;DHT22;5177;50.068;8.156;2023-08-06T11:22:59;18.40;1.00
10263;DHT22;5177;50.068;8.156;2023-08-06T11:25:25;18.30;99.90
10263;DHT22;5177;50.068;8.156;2023-08-06T11:27:51;18.20;99.90
10263;DHT22;5177;50.068;8.156;2023-08-06T11:30:16;18.00;1.00
10263;DHT22;5177;50.068;8.156;2023-08-06T11:32:45;17.90;99.90
10263;DHT22;5177;50.068;8.156;2023-08-06T11:35:12;17.80;99.90
10263;DHT22;5177;50.068;8.156;2023-08-06T11:37:38;17.70;1.00
10263;DHT22;5177;50.068;8.156;2023-08-06T11:40:07;17.70;1.00
10263;DHT22;5177;50.068;8.156;2023-08-06T11:42:33;17.70;99.90
10263;DHT22;5177;50.068;8.156;2023-08-06T11:44:58;17.70;99.90
10263;DHT22;5177;50.068;8.156;2023-08-06T11:47:24;17.80;99.90
10263;DHT22;5177;50.068;8.156;2023-08-06T11:49:49;17.70;99.90
10263;DHT22;5177;50.068;8.156;2023-08-06T11:52:16;17.60;99.90
10263;DHT22;5177;50.068;8.156;2023-08-06T11:54:44;17.50;99.90
10263;DHT22;5177;50.068;8.156;2023-08-06T11:57:11;17.60;56.30
10263;DHT22;5177;50.068;8.156;2023-08-06T11:59:37;17.80;1.00
10263;DHT22;5177;50.068;8.156;2023-08-06T12:02:04;18.10;99.90
10263;DHT22;5177;50.068;8.156;2023-08-06T12:05:18;18.20;99.90
10263;DHT22;5177;50.068;8.156;2023-08-06T12:07:18;18.30;1.00
10263;DHT22;5177;50.068;8.156;2023-08-06T12:09:44;18.30;1.80
10263;DHT22;5177;50.068;8.156;2023-08-06T12:12:09;18.40;99.90
10263;DHT22;5177;50.068;8.156;2023-08-06T12:14:36;18.60;99.90
10263;DHT22;5177;50.068;8.156;2023-08-06T12:17:01;18.70;99.90
10263;DHT22;5177;50.068;8.156;2023-08-06T12:19:28;18.80;2.20
10263;DHT22;5177;50.068;8.156;2023-08-06T12:21:55;18.70;1.00
10263;DHT22;5177;50.068;8.156;2023-08-06T12:24:21;18.80;1.00
10263;DHT22;5177;50.068;8.156;2023-08-06T12:26:46;18.90;99.90
10263;DHT22;5177;50.068;8.156;2023-08-06T12:29:12;19.00;99.90
10263;DHT22;5177;50.068;8.156;2023-08-06T12:31:37;18.90;99.90
10263;DHT22;5177;50.068;8.156;2023-08-06T12:34:03;18.40;1.00
10263;DHT22;5177;50.068;8.156;2023-08-06T12:36:28;18.50;99.90
10263;DHT22;5177;50.068;8.156;2023-08-06T12:38:54;18.40;11.80
10263;DHT22;5177;50.068;8.156;2023-08-06T12:41:19;18.10;1.00
10263;DHT22;5177;50.068;8.156;2023-08-06T12:43:44;17.90;1.00
10263;DHT22;5177;50.068;8.156;2023-08-06T12:46:10;17.80;99.90
10263;DHT22;5177;50.068;8.156;2023-08-06T12:48:37;17.70;1.00
10263;DHT22;5177;50.068;8.156;2023-08-06T12:51:02;17.60;99.90
10263;DHT22;5177;50.068;8.156;2023-08-06T12:53:28;17.50;1.00
10263;DHT22;5177;50.068;8.156;2023-08-06T12:55:53;17.30;99.90
10263;DHT22;5177;50.068;8.156;2023-08-06T12:58:19;17.30;99.90
10263;DHT22;5177;50.068;8.156;2023-08-06T13:00:44;17.20;99.90
10263;DHT22;5177;50.068;8.156;2023-08-06T13:03:10;17.10;99.90
10263;DHT22;5177;50.068;8.156;2023-08-06T13:05:35;17.00;1.00
10263;DHT22;5177;50.068;8.156;2023-08-06T13:08:01;16.90;1.00
10263;DHT22;5177;50.068;8.156;2023-08-06T13:10:27;16.70;1.00
10263;DHT22;5177;50.068;8.156;2023-08-06T13:12:54;16.60;1.00
10263;DHT22;5177;50.068;8.156;2023-08-06T13:15:20;16.60;1.00
10263;DHT22;5177;50.068;8.156;2023-08-06T13:17:47;16.50;1.00
10263;DHT22;5177;50.068;8.156;2023-08-06T13:20:12;16.50;1.00
10263;DHT22;5177;50.068;8.156;2023-08-06T13:22:38;16.40;1.00
10263;DHT22;5177;50.068;8.156;2023-08-06T13:25:06;16.50;1.00
10263;DHT22;5177;50.068;8.156;2023-08-06T13:27:32;16.50;1.00
10263;DHT22;5177;50.068;8.156;2023-08-06T13:29:58;16.60;1.00
10263;DHT22;5177;50.068;8.156;2023-08-06T13:32:24;16.70;1.00
10263;DHT22;5177;50.068;8.156;2023-08-06T13:34:49;16.90;99.90
10263;DHT22;5177;50.068;8.156;2023-08-06T13:37:15;17.00;99.90
10263;DHT22;5177;50.068;8.156;2023-08-06T13:39:40;17.10;1.00
10263;DHT22;5177;50.068;8.156;2023-08-06T13:42:06;17.30;1.00
10263;DHT22;5177;50.068;8.156;2023-08-06T13:44:31;17.40;99.90
10263;DHT22;5177;50.068;8.156;2023-08-06T13:47:01;17.60;5.20
10263;DHT22;5177;50.068;8.156;2023-08-06T13:49:26;17.70;1.00
10263;DHT22;5177;50.068;8.156;2023-08-06T13:51:52;17.70;99.90
10263;DHT22;5177;50.068;8.156;2023-08-06T13:54:18;17.70;1.00
10263;DHT22;5177;50.068;8.156;2023-08-06T13:56:46;17.70;54.20
10263;DHT22;5177;50.068;8.156;2023-08-06T13:59:11;17.70;1.00
10263;DHT22;5177;50.068;8.156;2023-08-06T14:01:38;17.80;99.90
10263;DHT22;5177;50.068;8.156;2023-08-06T14:04:04;17.80;1.00
10263;DHT22;5177;50.068;8.156;2023-08-06T14:06:29;17.70;30.70
10263;DHT22;5177;50.068;8.156;2023-08-06T14:08:56;17.60;99.90
10263;DHT22;5177;50.068;8.156;2023-08-06T14:11:22;17.60;1.00
10263;DHT22;5177;50.068;8.156;2023-08-06T14:13:48;17.50;1.00
10263;DHT22;5177;50.068;8.156;2023-08-06T14:16:14;17.60;99.90
10263;DHT22;5177;50.068;8.156;2023-08-06T14:18:40;17.60;99.90
10263;DHT22;5177;50.068;8.156;2023-08-06T14:21:06;17.60;1.00
10263;DHT22;5177;50.068;8.156;2023-08-06T14:23:32;17.60;1.00
10263;DHT22;5177;50.068;8.156;2023-08-06T14:25:57;17.60;99.90
10263;DHT22;5177;50.068;8.156;2023-08-06T14:28:23;17.50;99.90
10263;DHT22;5177;50.068;8.156;2023-08-06T14:30:49;17.50;99.90
10263;DHT22;5177;50.068;8.156;2023-08-06T14:33:14;17.60;1.00
10263;DHT22;5177;50.068;8.156;2023-08-06T14:35:40;17.60;1.00
10263;DHT22;5177;50.068;8.156;2023-08-06T14:38:05;17.60;1.00
10263;DHT22;5177;50.068;8.156;2023-08-06T14:40:31;17.60;99.90
10263;DHT22;5177;50.068;8.156;2023-08-06T14:43:00;17.50;99.90
10263;DHT22;5177;50.068;8.156;2023-08-06T14:45:26;17.60;1.00
10263;DHT22;5177;50.068;8.156;2023-08-06T14:47:52;17.50;1.00
10263;DHT22;5177;50.068;8.156;2023-08-06T14:50:17;17.50;1.00
10263;DHT22;5177;50.068;8.156;2023-08-06T14:52:43;17.40;1.00
10263;DHT22;5177;50.068;8.156;2023-08-06T14:55:08;17.40;1.00
10263;DHT22;5177;50.068;8.156;2023-08-06T14:57:34;17.40;1.00
10263;DHT22;5177;50.068;8.156;2023-08-06T14:59:59;17.30;1.00
10263;DHT22;5177;50.068;8.156;2023-08-06T15:02:25;17.40;1.00
10263;DHT22;5177;50.068;8.156;2023-08-06T15:04:51;17.40;1.00
10263;DHT22;5177;50.068;8.156;2023-08-06T15:07:16;17.40;99.90
10263;DHT22;5177;50.068;8.156;2023-08-06T15:09:42;17.40;73.40
10263;DHT22;5177;50.068;8.156;2023-08-06T15:12:08;17.40;99.90
10263;DHT22;5177;50.068;8.156;2023-08-06T15:14:33;17.50;99.90
10263;DHT22;5177;50.068;8.156;2023-08-06T15:17:01;17.40;99.90
10263;DHT22;5177;50.068;8.156;2023-08-06T15:19:27;17.30;1.00
10263;DHT22;5177;50.068;8.156;2023-08-06T15:21:52;17.30;99.90
10263;DHT22;5177;50.068;8.156;2023-08-06T15:24:18;17.20;1.00
10263;DHT22;5177;50.068;8.156;2023-08-06T15:26:43;17.20;1.00
10263;DHT22;5177;50.068;8.156;2023-08-06T15:29:09;17.20;1.00
10263;DHT22;5177;50.068;8.156;2023-08-06T15:31:36;17.20;99.90
10263;DHT22;5177;50.068;8.156;2023-08-06T15:34:02;17.10;1.00
10263;DHT22;5177;50.068;8.156;2023-08-06T15:36:31;17.10;1.00
10263;DHT22;5177;50.068;8.156;2023-08-06T15:38:57;17.10;1.00
10263;DHT22;5177;50.068;8.156;2023-08-06T15:41:23;17.10;1.00
10263;DHT22;5177;50.068;8.156;2023-08-06T15:43:48;17.00;27.40
10263;DHT22;5177;50.068;8.156;2023-08-06T15:46:14;17.10;70.20
10263;DHT22;5177;50.068;8.156;2023-08-06T15:48:41;17.00;1.00
10263;DHT22;5177;50.068;8.156;2023-08-06T15:51:06;17.00;1.00
10263;DHT22;5177;50.068;8.156;2023-08-06T15:53:33;17.00;1.00